Time;durP1;ratioP1;P1;durP2;ratioP2;P2;SDS_P1;SDS_P2;PMS_P1;PMS_P2;Temp;Humidity;BMP_temperature;BMP_pressure;BME280_temperature;BME280_humidity;BME280_pressure;Samples;Min_cycle;Max_cycle;Signal;HPM_P1;HPM_P2
2024/03/01 00:01:32;;;;;;;9.85;8.23;;;17.50;70.20;;;;;;4987595;28;20045;-87
2024/03/01 00:03:58;;;;;;;8.88;7.55;;;17.50;70.20;;;;;;4984460;28;20046;-86
2024/03/01 00:06:23;;;;;;;8.73;6.60;;;17.40;70.30;;;;;;5003726;28;20602;-86
2024/03/01 00:08:49;;;;;;;8.90;7.57;;;17.40;70.40;;;;;;5002712;28;20035;-89
2024/03/01 00:11:14;;;;;;;8.73;7.03;;;17.40;70.50;;;;;;4991657;28;20042;-87
2024/03/01 00:13:41;;;;;;;7.80;6.80;;;17.40;70.60;;;;;;5000261;28;20510;-87
2024/03/01 00:16:07;;;;;;;6.97;6.28;;;17.40;70.50;;;;;;4965584;28;20049;-88
2024/03/01 00:18:32;;;;;;;7.82;6.80;;;17.30;70.50;;;;;;4982185;28;20439;-85
2024/03/01 00:20:58;;;;;;;6.57;5.93;;;17.30;70.60;;;;;;4987614;28;20477;-85
2024/03/01 00:23:26;;;;;;;7.68;6.88;;;17.30;70.70;;;;;;4986028;28;20571;-88
2024/03/01 00:25:52;;;;;;;7.63;6.80;;;17.30;70.60;;;;;;5005813;28;20507;-87
2024/03/01 00:28:18;;;;;;;7.30;6.60;;;17.20;70.80;;;;;;5005287;28;20430;-90
2024/03/01 00:30:43;;;;;;;7.38;6.65;;;17.30;70.90;;;;;;4989059;28;20042;-86
2024/03/01 00:33:09;;;;;;;7.05;6.40;;;17.20;70.80;;;;;;5001135;28;20516;-86
2024/03/01 00:35:35;;;;;;;6.90;6.30;;;17.20;71.00;;;;;;5002687;28;20065;-85
2024/03/01 00:38:00;;;;;;;7.20;6.50;;;17.20;70.90;;;;;;4990335;28;20764;-87
2024/03/01 00:40:26;;;;;;;7.07;6.47;;;17.20;71.00;;;;;;4997902;28;20058;-87
2024/03/01 00:42:52;;;;;;;7.50;6.38;;;17.20;71.00;;;;;;4993248;28;20588;-87
2024/03/01 00:45:17;;;;;;;6.50;5.90;;;17.10;71.10;;;;;;4984246;28;20050;-90
2024/03/01 00:47:46;;;;;;;6.53;5.85;;;17.10;71.10;;;;;;4971634;28;20575;-87
2024/03/01 00:50:12;;;;;;;10.57;6.18;;;17.10;71.20;;;;;;4983536;28;20043;-86
2024/03/01 00:52:37;;;;;;;6.65;5.93;;;17.10;71.20;;;;;;4998381;28;20093;-87
2024/03/01 00:55:04;;;;;;;6.85;6.13;;;17.10;71.30;;;;;;4989280;28;20045;-90
2024/03/01 00:57:30;;;;;;;6.20;5.70;;;17.10;71.30;;;;;;4989444;28;20530;-84
2024/03/01 00:59:56;;;;;;;6.28;5.78;;;17.00;71.30;;;;;;5013547;28;20442;-80
2024/03/01 01:02:22;;;;;;;6.85;6.13;;;17.00;71.30;;;;;;5002741;28;20061;-79
2024/03/01 01:04:47;;;;;;;5.80;5.30;;;17.10;71.50;;;;;;4988630;28;20042;-79
2024/03/01 01:07:13;;;;;;;5.50;5.03;;;17.00;71.60;;;;;;5004455;28;20056;-79
2024/03/01 01:09:39;;;;;;;5.60;4.80;;;17.00;71.60;;;;;;5005884;28;20136;-79
2024/03/01 01:12:05;;;;;;;5.68;5.20;;;17.00;72.30;;;;;;5006456;28;20057;-79
2024/03/01 01:14:30;;;;;;;5.50;5.00;;;17.00;71.70;;;;;;4998508;28;20042;-79
2024/03/01 01:16:56;;;;;;;5.68;5.15;;;16.90;71.70;;;;;;5005870;28;20062;-79
2024/03/01 01:19:21;;;;;;;6.13;5.63;;;16.90;71.80;;;;;;5002204;28;20407;-79
2024/03/01 01:21:47;;;;;;;6.00;5.47;;;16.90;71.70;;;;;;4988156;28;20065;-79
2024/03/01 01:24:12;;;;;;;5.35;4.95;;;16.90;71.40;;;;;;4992662;28;20037;-79
2024/03/01 01:26:38;;;;;;;6.00;5.40;;;16.90;71.70;;;;;;4985884;28;20055;-79
2024/03/01 01:29:04;;;;;;;5.63;5.15;;;16.90;71.90;;;;;;4991965;28;20038;-79
2024/03/01 01:31:29;;;;;;;4.57;4.18;;;16.90;71.40;;;;;;4988265;28;20144;-79
2024/03/01 01:33:55;;;;;;;4.82;4.43;;;16.80;71.70;;;;;;5002832;28;20033;-79
2024/03/01 01:36:21;;;;;;;4.88;4.53;;;16.80;71.80;;;;;;5007053;28;20046;-81
2024/03/01 01:38:46;;;;;;;4.85;4.45;;;16.80;71.80;;;;;;5006073;28;20040;-80
2024/03/01 01:41:12;;;;;;;5.07;4.57;;;16.80;71.50;;;;;;5010870;28;20505;-80
2024/03/01 01:43:42;;;;;;;4.57;4.18;;;16.80;71.80;;;;;;5008268;28;20041;-82
2024/03/01 01:46:11;;;;;;;4.90;4.50;;;16.80;72.40;;;;;;4974087;28;20034;-81
2024/03/01 01:48:37;;;;;;;4.28;3.97;;;16.80;71.80;;;;;;5007405;28;20128;-80
2024/03/01 01:51:03;;;;;;;5.00;4.60;;;16.80;71.60;;;;;;4991001;28;20042;-80
2024/03/01 01:53:28;;;;;;;4.57;4.18;;;16.80;71.80;;;;;;4994362;28;20057;-80
2024/03/01 01:55:54;;;;;;;4.70;4.30;;;16.70;71.50;;;;;;5005321;28;20042;-81
2024/03/01 01:58:20;;;;;;;4.30;4.00;;;16.70;70.90;;;;;;5007208;28;20049;-81
2024/03/01 02:00:46;;;;;;;4.70;4.30;;;16.70;71.20;;;;;;4971981;28;20533;-81
2024/03/01 02:03:12;;;;;;;4.22;3.92;;;16.70;71.40;;;;;;5002628;28;20046;-81
2024/03/01 02:05:38;;;;;;;4.63;4.22;;;16.70;70.80;;;;;;4992650;28;20045;-82
2024/03/01 02:08:04;;;;;;;4.20;3.90;;;16.70;70.90;;;;;;4993344;28;20056;-83
2024/03/01 02:10:29;;;;;;;4.65;4.35;;;16.70;71.40;;;;;;4982760;28;20050;-82
2024/03/01 02:12:56;;;;;;;4.45;4.15;;;16.70;71.40;;;;;;4977200;28;20405;-81
2024/03/01 02:15:24;;;;;;;4.40;4.10;;;16.70;71.30;;;;;;5006050;28;20057;-82
2024/03/01 02:17:49;;;;;;;4.82;4.43;;;16.60;71.60;;;;;;5006709;28;20122;-82
2024/03/01 02:20:15;;;;;;;3.95;3.65;;;16.70;71.60;;;;;;4994171;28;20528;-82
2024/03/01 02:22:40;;;;;;;3.53;3.30;;;16.60;71.70;;;;;;4972253;28;20121;-80
2024/03/01 02:25:06;;;;;;;3.33;3.13;;;16.60;71.70;;;;;;4968506;28;20050;-80
2024/03/01 02:27:32;;;;;;;4.40;4.00;;;16.60;70.60;;;;;;5002725;28;20046;-80
2024/03/01 02:29:57;;;;;;;4.43;4.07;;;16.60;70.50;;;;;;5006126;28;20042;-80
2024/03/01 02:32:23;;;;;;;3.88;3.58;;;16.60;71.10;;;;;;5008138;28;20526;-80
2024/03/01 02:34:48;;;;;;;4.45;4.05;;;16.60;71.10;;;;;;5009377;28;20384;-80
2024/03/01 02:37:14;;;;;;;3.63;3.42;;;16.60;70.60;;;;;;5002719;28;20452;-80
2024/03/01 02:39:39;;;;;;;4.30;3.95;;;16.60;70.60;;;;;;5001970;28;20042;-80
2024/03/01 02:42:05;;;;;;;3.38;3.17;;;16.60;70.50;;;;;;5008973;28;20087;-81
2024/03/01 02:44:30;;;;;;;4.05;3.75;;;16.60;70.50;;;;;;4992355;28;20503;-81
2024/03/01 02:46:56;;;;;;;4.03;3.58;;;16.60;70.70;;;;;;5008073;28;20115;-81
2024/03/01 02:49:22;;;;;;;4.07;3.42;;;16.60;70.50;;;;;;4991612;28;20057;-81
2024/03/01 02:51:47;;;;;;;3.30;3.10;;;16.50;70.60;;;;;;4986480;28;20038;-81
2024/03/01 02:54:13;;;;;;;3.10;2.90;;;16.50;70.80;;;;;;5010038;28;20510;-80
2024/03/01 02:56:38;;;;;;;3.85;3.58;;;16.50;70.60;;;;;;5008738;28;20474;-79
2024/03/01 02:59:04;;;;;;;3.80;3.40;;;16.50;70.60;;;;;;5009665;28;20050;-81
2024/03/01 03:01:31;;;;;;;3.88;3.58;;;16.50;71.00;;;;;;5001041;28;20046;-81
2024/03/01 03:03:56;;;;;;;3.38;3.17;;;16.50;71.20;;;;;;4986403;28;20121;-80
2024/03/01 03:06:22;;;;;;;3.20;3.00;;;16.50;70.90;;;;;;5005239;28;20138;-80
2024/03/01 03:08:47;;;;;;;3.28;3.08;;;16.50;71.50;;;;;;4999827;28;20054;-80
2024/03/01 03:11:13;;;;;;;3.08;2.88;;;16.50;71.10;;;;;;5006603;28;20038;-81
2024/03/01 03:13:39;;;;;;;2.88;2.67;;;16.40;71.10;;;;;;4992756;28;20037;-80
2024/03/01 03:16:05;;;;;;;3.22;2.97;;;16.40;70.80;;;;;;5005694;28;20046;-80
2024/03/01 03:18:30;;;;;;;3.20;3.00;;;16.40;71.10;;;;;;5019070;28;20045;-81
2024/03/01 03:20:56;;;;;;;2.67;2.50;;;16.40;71.20;;;;;;5007043;28;20418;-80
2024/03/01 03:23:21;;;;;;;2.80;2.60;;;16.40;71.20;;;;;;4988368;28;20039;-80
2024/03/01 03:25:47;;;;;;;2.70;2.50;;;16.40;70.70;;;;;;5002038;28;20046;-80
2024/03/01 03:28:14;;;;;;;3.55;3.25;;;16.40;71.50;;;;;;4992507;28;20088;-80
2024/03/01 03:30:40;;;;;;;2.92;2.72;;;16.40;71.00;;;;;;5005590;28;20503;-80
2024/03/01 03:33:06;;;;;;;2.90;2.70;;;16.40;70.70;;;;;;4998889;28;20165;-80
2024/03/01 03:35:31;;;;;;;2.58;2.38;;;16.40;70.80;;;;;;4992940;28;20053;-79
2024/03/01 03:37:57;;;;;;;2.90;2.70;;;16.40;70.80;;;;;;5009480;28;20057;-79
2024/03/01 03:40:22;;;;;;;2.67;2.47;;;16.30;70.70;;;;;;5005826;28;20077;-79
2024/03/01 03:42:48;;;;;;;2.90;2.70;;;16.30;71.00;;;;;;5003914;28;20046;-81
2024/03/01 03:45:13;;;;;;;2.78;2.50;;;16.40;71.00;;;;;;4993428;28;20034;-80
2024/03/01 03:47:39;;;;;;;2.42;2.28;;;16.40;70.60;;;;;;4992450;28;20038;-80
2024/03/01 03:50:08;;;;;;;2.60;2.40;;;16.30;70.90;;;;;;4995167;28;20046;-81
2024/03/01 03:52:36;;;;;;;2.92;2.72;;;16.30;71.20;;;;;;5007768;28;20062;-80
2024/03/01 03:55:06;;;;;;;2.55;2.45;;;16.30;71.40;;;;;;5003860;28;20057;-81
2024/03/01 03:57:35;;;;;;;3.25;2.65;;;16.30;71.40;;;;;;4996280;28;20074;-80
2024/03/01 04:00:08;;;;;;;2.50;2.30;;;16.30;70.90;;;;;;4968190;28;20050;-80
2024/03/01 04:02:34;;;;;;;2.60;2.35;;;16.30;70.70;;;;;;4975625;28;20538;-80
2024/03/01 04:04:59;;;;;;;2.30;2.20;;;16.30;70.90;;;;;;4967271;28;20042;-80
2024/03/01 04:07:25;;;;;;;2.20;2.10;;;16.30;72.10;;;;;;4976661;28;20440;-80
2024/03/01 04:09:51;;;;;;;2.78;2.58;;;16.30;71.00;;;;;;4964636;28;20046;-79
2024/03/01 04:12:16;;;;;;;2.10;2.00;;;16.20;71.10;;;;;;4984568;28;20062;-79
2024/03/01 04:14:42;;;;;;;1.70;1.60;;;16.20;71.40;;;;;;4969059;28;20528;-80
2024/03/01 04:17:10;;;;;;;2.42;2.22;;;16.30;71.00;;;;;;4966242;28;20134;-79
2024/03/01 04:19:37;;;;;;;2.50;2.40;;;16.20;71.40;;;;;;4961522;28;20411;-80
2024/03/01 04:22:03;;;;;;;2.30;2.10;;;16.20;71.40;;;;;;4980332;28;20051;-80
2024/03/01 04:24:29;;;;;;;2.22;2.03;;;16.20;71.40;;;;;;4980779;28;20050;-80
2024/03/01 04:26:55;;;;;;;2.10;1.90;;;16.20;70.90;;;;;;4979240;28;20057;-80
2024/03/01 04:29:20;;;;;;;2.10;2.00;;;16.20;71.40;;;;;;4952687;28;20047;-81
2024/03/01 04:31:49;;;;;;;2.00;1.90;;;16.20;71.40;;;;;;4967853;28;20047;-80
2024/03/01 04:34:21;;;;;;;1.95;1.77;;;16.20;71.30;;;;;;4979874;28;20498;-80
2024/03/01 04:36:47;;;;;;;1.92;1.80;;;16.20;70.90;;;;;;4965492;28;20134;-81
2024/03/01 04:39:14;;;;;;;1.85;1.70;;;16.20;70.70;;;;;;4972999;28;20145;-81
2024/03/01 04:41:40;;;;;;;1.80;1.70;;;16.20;71.20;;;;;;4969323;28;20050;-81
2024/03/01 04:44:05;;;;;;;2.00;1.80;;;16.20;71.40;;;;;;4982376;28;20042;-81
2024/03/01 04:46:31;;;;;;;1.73;1.63;;;16.20;71.40;;;;;;4960591;28;20105;-81
2024/03/01 04:48:56;;;;;;;1.73;1.63;;;16.20;70.80;;;;;;4974444;28;20034;-81
2024/03/01 04:51:25;;;;;;;1.65;1.55;;;16.20;71.40;;;;;;4969390;28;20201;-81
2024/03/01 04:53:51;;;;;;;1.60;1.50;;;16.10;71.40;;;;;;4987390;28;20051;-81
2024/03/01 04:56:19;;;;;;;5.53;1.98;;;16.10;71.40;;;;;;4969780;28;20046;-81
2024/03/01 04:58:45;;;;;;;1.60;1.50;;;16.10;71.40;;;;;;4988962;28;20084;-81
2024/03/01 05:01:10;;;;;;;1.42;1.33;;;16.10;71.40;;;;;;5000138;28;20073;-81
2024/03/01 05:03:36;;;;;;;2.20;1.70;;;16.10;71.50;;;;;;4999977;28;20047;-82
2024/03/01 05:06:03;;;;;;;1.60;1.50;;;16.10;71.50;;;;;;4986438;28;20039;-81
2024/03/01 05:08:30;;;;;;;1.83;1.42;;;16.10;71.50;;;;;;4991914;28;20092;-82
2024/03/01 05:10:56;;;;;;;1.80;1.70;;;16.10;71.40;;;;;;5005231;28;20057;-81
2024/03/01 05:13:21;;;;;;;1.88;1.77;;;16.10;71.20;;;;;;5006692;28;20042;-81
2024/03/01 05:15:48;;;;;;;1.60;1.50;;;16.10;71.40;;;;;;4989256;28;20530;-82
2024/03/01 05:18:13;;;;;;;1.90;1.80;;;16.10;71.40;;;;;;4991867;28;20046;-81
2024/03/01 05:20:39;;;;;;;1.63;1.52;;;16.10;71.40;;;;;;4993830;28;20431;-80
2024/03/01 05:23:05;;;;;;;1.58;1.48;;;16.10;71.40;;;;;;4972328;28;20046;-80
2024/03/01 05:25:30;;;;;;;1.33;1.20;;;16.10;70.80;;;;;;4986420;28;20050;-81
2024/03/01 05:27:56;;;;;;;1.30;1.20;;;16.10;71.50;;;;;;4991812;28;20039;-81
2024/03/01 05:30:23;;;;;;;1.60;1.50;;;16.10;70.60;;;;;;5007310;28;20046;-81
2024/03/01 05:32:50;;;;;;;1.60;1.50;;;16.10;70.60;;;;;;4990135;28;20042;-80
2024/03/01 05:35:17;;;;;;;1.50;1.40;;;16.10;70.80;;;;;;5004620;28;20051;-82
2024/03/01 05:37:43;;;;;;;1.42;1.33;;;16.00;71.30;;;;;;4992376;28;20061;-81
2024/03/01 05:40:10;;;;;;;2.75;1.60;;;16.00;71.30;;;;;;5002651;28;20504;-82
2024/03/01 05:42:39;;;;;;;1.20;1.10;;;16.10;71.20;;;;;;5006511;28;20523;-82
2024/03/01 05:45:08;;;;;;;1.60;1.50;;;16.10;70.80;;;;;;4972841;28;20053;-82
2024/03/01 05:47:38;;;;;;;1.75;1.65;;;16.10;70.50;;;;;;4975834;28;20042;-81
2024/03/01 05:50:04;;;;;;;1.42;1.33;;;16.10;70.60;;;;;;4993249;28;20422;-81
2024/03/01 05:52:33;;;;;;;1.20;1.10;;;16.10;70.70;;;;;;4981349;28;20038;-81
2024/03/01 05:54:59;;;;;;;1.40;1.30;;;16.10;70.70;;;;;;4986287;28;20575;-82
2024/03/01 05:57:28;;;;;;;1.42;1.33;;;16.10;70.70;;;;;;4999876;28;20129;-81
2024/03/01 05:59:55;;;;;;;1.30;1.20;;;16.00;70.70;;;;;;5000584;28;20055;-81
2024/03/01 06:02:22;;;;;;;1.20;1.15;;;16.00;70.80;;;;;;5005620;28;20442;-80
2024/03/01 06:04:47;;;;;;;1.50;1.40;;;16.00;70.80;;;;;;4985675;28;20042;-80
2024/03/01 06:07:13;;;;;;;1.25;1.10;;;16.00;70.70;;;;;;4982247;28;20050;-81
2024/03/01 06:09:39;;;;;;;1.35;1.25;;;16.00;70.90;;;;;;5003785;28;20554;-81
2024/03/01 06:12:04;;;;;;;1.40;1.30;;;16.00;70.90;;;;;;4990004;28;20122;-80
2024/03/01 06:14:30;;;;;;;2.70;1.20;;;16.00;70.90;;;;;;5006035;28;20046;-79
2024/03/01 06:16:56;;;;;;;1.23;1.13;;;16.00;70.90;;;;;;5004062;28;20056;-80
2024/03/01 06:19:21;;;;;;;1.30;1.13;;;16.10;71.00;;;;;;4994005;28;20069;-79
2024/03/01 06:21:47;;;;;;;1.10;1.10;;;16.10;70.90;;;;;;4985452;28;20545;-82
2024/03/01 06:24:13;;;;;;;1.05;1.00;;;16.10;71.30;;;;;;5000377;28;20586;-81
2024/03/01 06:26:39;;;;;;;4.13;1.33;;;16.00;71.30;;;;;;4987042;28;20126;-81
2024/03/01 06:29:04;;;;;;;4.07;1.30;;;16.10;71.50;;;;;;5005692;28;20142;-80
2024/03/01 06:31:30;;;;;;;4.22;1.27;;;16.10;71.40;;;;;;4989369;28;20050;-80
2024/03/01 06:33:55;;;;;;;1.58;1.08;;;16.10;71.40;;;;;;4966090;28;20049;-81
2024/03/01 06:36:21;;;;;;;2.17;1.20;;;16.10;71.60;;;;;;5001513;28;20531;-80
2024/03/01 06:38:46;;;;;;;3.25;1.23;;;16.10;71.90;;;;;;4988680;28;20049;-81
2024/03/01 06:41:13;;;;;;;1.45;1.35;;;16.10;72.10;;;;;;4974616;28;20042;-80
2024/03/01 06:43:39;;;;;;;0.98;0.90;;;16.00;72.10;;;;;;5000144;28;20045;-80
2024/03/01 06:46:06;;;;;;;1.33;0.80;;;16.00;72.20;;;;;;4987156;28;20041;-82
2024/03/01 06:48:32;;;;;;;2.10;1.30;;;16.10;72.20;;;;;;4991319;28;20419;-82
2024/03/01 06:50:57;;;;;;;1.90;1.40;;;16.10;72.30;;;;;;4987487;28;20054;-81
2024/03/01 06:53:23;;;;;;;1.10;1.00;;;16.10;72.10;;;;;;4987519;28;20078;-81
2024/03/01 06:55:49;;;;;;;1.20;1.10;;;16.10;72.10;;;;;;5000689;28;20042;-81
2024/03/01 06:58:14;;;;;;;1.20;0.95;;;16.10;72.20;;;;;;4996807;28;20046;-87
2024/03/01 07:00:46;;;;;;;2.15;1.00;;;16.10;72.30;;;;;;4967906;28;20046;-82
2024/03/01 07:03:13;;;;;;;1.50;0.95;;;16.10;72.10;;;;;;4996462;28;20039;-83
2024/03/01 07:05:38;;;;;;;0.70;0.70;;;16.10;71.90;;;;;;4964098;28;20051;-82
2024/03/01 07:08:04;;;;;;;1.42;1.00;;;16.10;71.80;;;;;;4963891;28;20046;-83
2024/03/01 07:10:30;;;;;;;0.77;0.75;;;16.10;71.70;;;;;;4969108;28;20058;-82
2024/03/01 07:12:56;;;;;;;0.93;0.90;;;16.10;71.60;;;;;;4969612;28;20515;-82
2024/03/01 07:15:21;;;;;;;0.88;0.88;;;16.10;71.70;;;;;;4969884;28;20552;-83
2024/03/01 07:17:47;;;;;;;0.82;0.82;;;16.10;71.80;;;;;;4965806;28;20043;-83
2024/03/01 07:20:12;;;;;;;4.10;1.30;;;16.10;71.80;;;;;;4982609;28;20049;-82
2024/03/01 07:22:38;;;;;;;1.00;0.82;;;16.10;71.70;;;;;;4968172;28;20043;-82
2024/03/01 07:25:05;;;;;;;1.77;1.20;;;16.10;71.70;;;;;;4963048;28;20042;-81
2024/03/01 07:27:34;;;;;;;1.58;0.90;;;16.10;71.50;;;;;;4965313;28;20133;-82
2024/03/01 07:30:00;;;;;;;1.38;0.88;;;16.00;71.50;;;;;;4985136;28;20069;-79
2024/03/01 07:32:25;;;;;;;1.00;0.90;;;16.10;71.60;;;;;;4967963;28;20500;-79
2024/03/01 07:34:51;;;;;;;3.80;1.00;;;16.10;71.60;;;;;;4964908;28;20053;-78
2024/03/01 07:37:17;;;;;;;0.95;0.95;;;16.10;71.40;;;;;;4962815;28;20046;-81
2024/03/01 07:39:42;;;;;;;1.35;0.75;;;16.00;71.50;;;;;;4964571;28;20051;-79
2024/03/01 07:42:08;;;;;;;1.52;0.70;;;16.00;71.40;;;;;;4978642;28;20031;-83
2024/03/01 07:44:34;;;;;;;1.27;1.10;;;16.00;71.60;;;;;;4967931;28;20109;-81
2024/03/01 07:47:02;;;;;;;2.22;0.90;;;16.00;71.40;;;;;;4978846;28;20034;-79
2024/03/01 07:49:28;;;;;;;0.90;0.90;;;16.00;71.30;;;;;;4963460;28;20045;-80
2024/03/01 07:51:54;;;;;;;1.95;1.10;;;16.00;71.30;;;;;;4972602;28;20035;-79
2024/03/01 07:54:20;;;;;;;1.05;0.95;;;16.00;71.30;;;;;;4992548;28;20062;-81
2024/03/01 07:56:45;;;;;;;1.00;0.80;;;16.00;71.80;;;;;;5000924;28;20066;-81
2024/03/01 07:59:11;;;;;;;0.82;0.80;;;16.00;71.70;;;;;;4967571;28;20043;-82
2024/03/01 08:01:37;;;;;;;1.02;0.80;;;16.10;71.50;;;;;;4969825;28;20038;-80
2024/03/01 08:04:02;;;;;;;0.65;0.65;;;16.10;71.90;;;;;;4998948;28;20511;-80
2024/03/01 08:06:29;;;;;;;0.98;0.70;;;16.10;71.70;;;;;;4985847;28;20389;-81
2024/03/01 08:08:54;;;;;;;0.55;0.55;;;16.10;72.20;;;;;;4967194;28;20066;-81
2024/03/01 08:11:26;;;;;;;0.98;0.70;;;16.10;71.80;;;;;;4965347;28;20096;-81
2024/03/01 08:13:52;;;;;;;0.93;0.85;;;16.10;71.80;;;;;;4986192;28;20042;-82
2024/03/01 08:16:19;;;;;;;0.50;0.50;;;16.10;71.90;;;;;;4966564;28;20049;-82
2024/03/01 08:18:45;;;;;;;1.70;0.85;;;16.10;72.20;;;;;;4966524;28;20086;-82
2024/03/01 08:21:13;;;;;;;1.02;0.80;;;16.10;72.30;;;;;;4958361;28;20039;-82
2024/03/01 08:23:40;;;;;;;4.82;0.98;;;16.00;72.30;;;;;;4983747;28;20054;-82
2024/03/01 08:26:14;;;;;;;0.80;0.80;;;16.00;72.10;;;;;;4969273;28;20058;-81
2024/03/01 08:28:42;;;;;;;0.60;0.57;;;16.00;72.30;;;;;;4974128;28;20059;-82
2024/03/01 08:31:21;;;;;;;0.90;0.75;;;16.00;72.40;;;;;;4977703;28;20047;-82
2024/03/01 08:33:47;;;;;;;1.15;0.80;;;16.00;72.20;;;;;;4976125;28;20113;-82
2024/03/01 08:36:13;;;;;;;0.80;0.80;;;16.00;72.40;;;;;;4969586;28;20039;-82
2024/03/01 08:38:39;;;;;;;1.75;0.70;;;16.00;72.40;;;;;;4973269;28;20539;-82
2024/03/01 08:41:05;;;;;;;0.63;0.60;;;16.00;72.50;;;;;;4961133;28;20055;-81
2024/03/01 08:43:30;;;;;;;0.95;0.68;;;16.00;72.50;;;;;;4968816;28;20049;-82
2024/03/01 08:46:00;;;;;;;1.05;0.90;;;16.00;72.50;;;;;;4968262;28;20424;-82
2024/03/01 08:48:25;;;;;;;1.63;0.68;;;16.00;72.60;;;;;;4967718;28;20045;-82
2024/03/01 08:50:51;;;;;;;0.73;0.63;;;16.00;72.40;;;;;;4987832;28;20432;-82
2024/03/01 08:53:56;;;;;;;1.15;0.75;;;16.00;72.40;;;;;;4972754;28;20043;-82
2024/03/01 08:56:30;;;;;;;0.60;0.60;;;16.10;72.30;;;;;;4966524;28;20089;-82
2024/03/01 08:58:56;;;;;;;0.60;0.60;;;16.10;72.10;;;;;;4985122;28;20074;-82
2024/03/01 09:01:27;;;;;;;0.70;0.70;;;16.10;71.90;;;;;;4989819;28;20744;-81
2024/03/01 09:03:53;;;;;;;1.85;0.82;;;16.20;71.90;;;;;;4987610;28;20073;-82
2024/03/01 09:06:19;;;;;;;0.98;0.60;;;16.20;71.90;;;;;;4987168;28;20062;-81
2024/03/01 09:08:44;;;;;;;1.95;0.93;;;16.20;71.80;;;;;;4984889;28;20137;-83
2024/03/01 09:11:12;;;;;;;0.80;0.50;;;16.20;71.80;;;;;;4984801;28;20054;-82
2024/03/01 09:13:37;;;;;;;0.55;0.52;;;16.10;71.90;;;;;;5004873;28;20050;-82
2024/03/01 09:16:03;;;;;;;0.65;0.65;;;16.10;71.90;;;;;;5006610;28;20057;-82
2024/03/01 09:18:44;;;;;;;2.30;0.70;;;16.10;71.80;;;;;;4999473;28;20042;-82
2024/03/01 09:21:36;;;;;;;0.90;0.63;;;16.10;71.90;;;;;;4984652;28;20478;-81
2024/03/01 09:24:02;;;;;;;0.65;0.65;;;16.10;71.60;;;;;;4984455;28;20120;-81
2024/03/01 09:26:28;;;;;;;0.75;0.60;;;16.10;71.80;;;;;;4975236;28;20125;-80
2024/03/01 09:28:59;;;;;;;1.10;0.73;;;16.10;71.90;;;;;;4984857;28;20133;-82
2024/03/01 09:31:24;;;;;;;0.75;0.70;;;16.10;71.80;;;;;;4990552;28;20150;-82
2024/03/01 09:33:50;;;;;;;0.60;0.60;;;16.10;71.90;;;;;;5003478;28;20050;-83
2024/03/01 09:36:18;;;;;;;1.38;0.90;;;16.10;71.90;;;;;;5000080;28;20136;-82
2024/03/01 09:38:43;;;;;;;0.90;0.90;;;16.10;71.60;;;;;;4974064;28;20047;-83
2024/03/01 09:41:19;;;;;;;1.50;0.60;;;16.10;71.50;;;;;;4990217;28;20703;-82
2024/03/01 09:44:06;;;;;;;0.50;0.50;;;16.10;71.70;;;;;;4993487;28;20050;-83
2024/03/01 09:46:35;;;;;;;0.95;0.60;;;16.10;71.60;;;;;;5007180;28;20050;-81
2024/03/01 09:49:29;;;;;;;0.50;0.50;;;16.10;71.90;;;;;;4988273;28;20054;-82
2024/03/01 09:52:04;;;;;;;0.57;0.57;;;16.10;71.80;;;;;;5001695;28;20145;-82
2024/03/01 09:54:48;;;;;;;0.60;0.60;;;16.10;71.80;;;;;;4987361;28;20549;-82
2024/03/01 09:57:22;;;;;;;0.75;0.57;;;16.10;71.70;;;;;;5002017;28;20042;-82
2024/03/01 09:59:51;;;;;;;;;;;16.10;71.90;;;;;;5005797;28;20051;-82
2024/03/01 10:02:31;;;;;;;0.95;0.68;;;16.10;71.90;;;;;;5007863;28;19940;-81
2024/03/01 10:05:24;;;;;;;1.25;0.63;;;16.10;71.90;;;;;;5005132;28;20047;-82
2024/03/01 10:08:01;;;;;;;1.13;0.60;;;16.10;72.10;;;;;;4990137;28;20053;-82
2024/03/01 10:11:10;;;;;;;0.50;0.50;;;16.10;71.90;;;;;;4988107;28;20046;-82
2024/03/01 10:14:04;;;;;;;0.60;0.50;;;16.10;72.00;;;;;;4936543;28;20035;-82
2024/03/01 10:16:55;;;;;;;0.60;0.60;;;16.10;72.20;;;;;;4936559;28;20051;-82
2024/03/01 10:19:53;;;;;;;1.75;0.50;;;16.10;72.10;;;;;;4934078;28;20147;-82
2024/03/01 10:22:40;;;;;;;0.60;0.60;;;16.10;72.30;;;;;;4893131;29;20651;-82
2024/03/01 10:25:12;;;;;;;1.55;0.43;;;16.10;72.00;;;;;;4895129;29;20036;-82
2024/03/01 10:27:39;;;;;;;0.55;0.50;;;16.10;71.90;;;;;;4895999;29;20052;-82
2024/03/01 10:30:18;;;;;;;0.90;0.77;;;16.20;72.60;;;;;;4893968;29;20036;-82
2024/03/01 10:33:09;;;;;;;0.50;0.50;;;16.20;71.60;;;;;;4891191;29;20062;-82
2024/03/01 10:35:44;;;;;;;0.50;0.50;;;16.20;71.40;;;;;;4891763;29;20135;-83
2024/03/01 10:38:21;;;;;;;0.60;0.60;;;16.20;71.30;;;;;;4878070;29;20052;-81
2024/03/01 10:41:24;;;;;;;0.50;0.50;;;16.20;71.40;;;;;;4894624;29;20052;-82
2024/03/01 10:44:13;;;;;;;0.60;0.47;;;16.20;71.40;;;;;;4896592;29;20052;-82
2024/03/01 10:46:40;;;;;;;0.60;0.57;;;16.20;71.20;;;;;;4892231;29;20055;-82
2024/03/01 10:49:08;;;;;;;0.82;0.50;;;16.20;71.20;;;;;;4880312;29;20068;-82
2024/03/01 10:51:35;;;;;;;0.90;0.70;;;16.20;71.30;;;;;;4927033;28;20047;-82
2024/03/01 10:54:03;;;;;;;0.50;0.43;;;16.20;71.10;;;;;;4928607;29;20421;-81
2024/03/01 10:56:29;;;;;;;0.70;0.55;;;16.20;71.20;;;;;;4946712;28;20450;-81
2024/03/01 10:58:57;;;;;;;0.57;0.50;;;16.20;71.30;;;;;;4980390;28;20101;-81
2024/03/01 11:01:42;;;;;;;0.73;0.30;;;16.20;71.40;;;;;;4990354;28;20120;-80
2024/03/01 11:04:07;;;;;;;;;;;16.20;71.40;;;;;;4997115;28;20046;-79
2024/03/01 11:06:34;;;;;;;0.50;0.40;;;16.20;71.40;;;;;;4997497;28;19924;-79
2024/03/01 11:09:09;;;;;;;0.65;0.50;;;16.20;71.50;;;;;;4994270;28;20046;-79
2024/03/01 11:11:41;;;;;;;0.60;0.60;;;16.20;71.40;;;;;;5008797;28;20045;-79
2024/03/01 11:14:08;;;;;;;0.52;0.40;;;16.20;71.40;;;;;;5016692;28;20126;-78
2024/03/01 11:16:34;;;;;;;1.92;0.30;;;16.20;71.50;;;;;;4992837;28;20057;-79
2024/03/01 11:19:06;;;;;;;0.55;0.40;;;16.20;71.50;;;;;;5008565;28;20054;-79
2024/03/01 11:21:33;;;;;;;0.90;0.73;;;16.20;71.40;;;;;;4995952;28;20384;-79
2024/03/01 11:24:05;;;;;;;0.55;0.38;;;16.30;71.70;;;;;;5008019;28;20201;-80
2024/03/01 11:26:33;;;;;;;0.45;0.43;;;16.30;71.50;;;;;;5011403;28;20046;-79
2024/03/01 11:29:03;;;;;;;3.20;0.40;;;16.30;71.70;;;;;;5007164;28;20062;-79
2024/03/01 11:31:30;;;;;;;2.45;0.68;;;16.30;71.50;;;;;;5003926;28;20057;-78
2024/03/01 11:33:58;;;;;;;1.65;1.10;;;16.40;71.90;;;;;;5003572;28;20061;-78
2024/03/01 11:36:51;;;;;;;1.33;0.88;;;16.50;71.40;;;;;;5003993;28;20041;-78
2024/03/01 11:39:38;;;;;;;2.10;0.75;;;16.50;70.50;;;;;;4660148;28;9999675;-79
2024/03/01 11:42:17;;;;;;;2.40;0.70;;;16.50;70.50;;;;;;4997991;28;20491;-80
2024/03/01 11:44:59;;;;;;;1.88;1.10;;;16.50;72.90;;;;;;5001955;28;20051;-78
2024/03/01 11:47:52;;;;;;;1.23;0.70;;;16.40;77.20;;;;;;4991654;28;20074;-78
2024/03/01 11:50:37;;;;;;;1.00;0.75;;;16.40;74.20;;;;;;5011457;28;20064;-78
2024/03/01 11:53:19;;;;;;;1.33;0.88;;;16.40;74.00;;;;;;4991095;28;20057;-79
2024/03/01 11:56:22;;;;;;;0.73;0.40;;;16.50;73.40;;;;;;5003444;28;20042;-80
2024/03/01 11:58:58;;;;;;;1.20;0.50;;;16.50;73.50;;;;;;5001716;28;20069;-80
2024/03/01 12:01:42;;;;;;;1.13;0.50;;;16.50;73.20;;;;;;5004021;28;20049;-81
2024/03/01 12:04:24;;;;;;;0.63;0.50;;;16.50;72.70;;;;;;4997575;28;20046;-80
2024/03/01 12:07:11;;;;;;;3.08;0.52;;;16.50;72.50;;;;;;4977739;28;20498;-81
2024/03/01 12:09:55;;;;;;;1.10;1.00;;;16.40;72.50;;;;;;4996001;28;20103;-80
2024/03/01 12:12:32;;;;;;;1.30;0.50;;;16.40;72.40;;;;;;4993736;28;20033;-80
2024/03/01 12:14:58;;;;;;;1.00;0.80;;;16.40;72.20;;;;;;4996529;28;20042;-81
2024/03/01 12:17:32;;;;;;;0.88;0.50;;;16.40;72.10;;;;;;5004176;28;20057;-81
2024/03/01 12:19:58;;;;;;;0.95;0.60;;;16.40;72.20;;;;;;4985485;28;20125;-81
2024/03/01 12:22:41;;;;;;;1.88;0.60;;;16.40;72.10;;;;;;4991348;28;20061;-80
2024/03/01 12:25:07;;;;;;;0.85;0.60;;;16.40;71.90;;;;;;4998963;28;20137;-80
2024/03/01 12:27:47;;;;;;;0.50;0.50;;;16.40;72.00;;;;;;4624930;28;10000432;-81
2024/03/01 12:30:29;;;;;;;0.77;0.70;;;16.50;72.10;;;;;;5002598;28;20042;-78
2024/03/01 12:33:13;;;;;;;2.78;0.80;;;16.50;71.80;;;;;;4990287;28;20050;-76
2024/03/01 12:35:56;;;;;;;0.77;0.65;;;16.50;72.00;;;;;;4998037;28;20034;-76
2024/03/01 12:38:25;;;;;;;0.80;0.50;;;16.40;71.60;;;;;;5001849;28;20189;-76
2024/03/01 12:40:50;;;;;;;0.70;0.50;;;16.40;71.60;;;;;;4985172;28;20041;-76
2024/03/01 12:43:55;;;;;;;1.02;0.65;;;16.50;71.90;;;;;;4998737;28;20116;-76
2024/03/01 12:46:29;;;;;;;0.60;0.32;;;16.40;71.70;;;;;;4939382;28;20521;-76
2024/03/01 12:49:35;;;;;;;0.28;0.25;;;16.40;71.90;;;;;;4910971;28;20047;-76
2024/03/01 12:52:22;;;;;;;0.60;0.40;;;16.40;71.80;;;;;;4941425;28;20117;-77
2024/03/01 12:54:55;;;;;;;0.63;0.50;;;16.40;71.80;;;;;;4927428;28;20125;-75
2024/03/01 12:57:24;;;;;;;1.07;0.37;;;16.40;71.60;;;;;;4898253;28;20062;-77
2024/03/01 13:00:13;;;;;;;0.57;0.40;;;16.40;71.60;;;;;;4941078;28;20300;-77